Time;durP1;ratioP1;P1;durP2;ratioP2;P2;SDS_P1;SDS_P2;PMS_P1;PMS_P2;Temp;Humidity;BMP_temperature;BMP_pressure;BME280_temperature;BME280_humidity;BME280_pressure;Samples;Min_cycle;Max_cycle;Signal;HPM_P1;HPM_P2
2022/09/20 00:00:46;;;;;;;2.03;1.23;;;22.90;49.80;;;;;;5065080;28;20028;-51
2022/09/20 00:03:16;;;;;;;1.30;0.98;;;22.90;49.80;;;;;;5051505;28;20028;-47
2022/09/20 00:05:43;;;;;;;1.80;0.95;;;22.90;49.80;;;;;;5048835;28;20033;-48
2022/09/20 00:08:13;;;;;;;1.33;0.82;;;22.90;49.80;;;;;;5068348;28;20087;-50
2022/09/20 00:10:39;;;;;;;1.50;1.00;;;22.90;49.80;;;;;;5059435;28;20045;-50
2022/09/20 00:13:06;;;;;;;3.22;1.20;;;22.90;50.40;;;;;;5071991;28;20478;-48
2022/09/20 00:15:33;;;;;;;3.15;1.05;;;22.90;49.80;;;;;;5071787;28;20115;-48
2022/09/20 00:17:59;;;;;;;1.10;0.80;;;22.90;49.80;;;;;;5071224;28;20482;-46
2022/09/20 00:20:25;;;;;;;1.65;0.90;;;22.90;49.80;;;;;;5053350;28;20040;-47
2022/09/20 00:22:51;;;;;;;1.20;0.82;;;22.90;49.80;;;;;;5048187;28;20037;-50
2022/09/20 00:25:18;;;;;;;1.48;0.93;;;22.90;49.80;;;;;;5052835;28;20029;-51
2022/09/20 00:27:44;;;;;;;1.58;0.88;;;22.90;49.80;;;;;;5052287;28;20080;-49
2022/09/20 00:30:11;;;;;;;1.55;0.93;;;22.90;49.80;;;;;;5053522;28;20040;-47
2022/09/20 00:32:37;;;;;;;2.13;0.88;;;22.90;49.80;;;;;;5052090;28;20099;-47
2022/09/20 00:35:12;;;;;;;1.63;1.02;;;22.90;49.70;;;;;;5053051;28;20530;-48
2022/09/20 00:37:40;;;;;;;1.52;1.10;;;22.90;49.70;;;;;;5061926;28;20063;-47
2022/09/20 00:40:09;;;;;;;2.28;1.10;;;22.90;49.70;;;;;;5047859;28;20036;-51
2022/09/20 00:42:35;;;;;;;1.23;0.90;;;22.90;49.70;;;;;;5057854;28;20024;-49
2022/09/20 00:45:05;;;;;;;1.77;1.00;;;22.90;50.40;;;;;;5055050;28;20031;-49
2022/09/20 00:47:34;;;;;;;2.17;1.30;;;22.90;49.80;;;;;;5052033;28;20025;-52
2022/09/20 00:50:25;;;;;;;2.33;1.08;;;22.90;49.80;;;;;;5052393;28;20029;-50
2022/09/20 00:52:57;;;;;;;1.40;0.80;;;22.90;49.80;;;;;;5050824;28;20036;-45
2022/09/20 00:55:23;;;;;;;2.15;0.88;;;22.90;49.80;;;;;;5050573;28;20224;-49
2022/09/20 00:57:50;;;;;;;3.10;0.82;;;22.90;49.70;;;;;;5051590;28;20036;-46
2022/09/20 01:00:16;;;;;;;1.88;1.35;;;22.90;49.80;;;;;;5054208;28;20470;-49
2022/09/20 01:02:46;;;;;;;1.05;0.80;;;22.90;49.80;;;;;;5053714;28;20035;-50
2022/09/20 01:05:14;;;;;;;2.00;0.73;;;22.90;49.80;;;;;;5048374;28;20036;-45
2022/09/20 01:07:42;;;;;;;1.10;0.80;;;22.90;49.80;;;;;;5052515;28;20111;-46
2022/09/20 01:10:08;;;;;;;1.38;1.00;;;22.90;50.40;;;;;;5052532;28;20114;-46
2022/09/20 01:12:35;;;;;;;1.52;0.82;;;22.90;49.80;;;;;;5038813;28;20474;-54
2022/09/20 01:15:03;;;;;;;2.33;0.73;;;22.90;49.80;;;;;;5042167;28;20409;-46
2022/09/20 01:17:33;;;;;;;2.10;0.93;;;22.90;49.80;;;;;;5045114;28;20385;-53
2022/09/20 01:20:36;;;;;;;1.95;0.80;;;22.90;49.80;;;;;;5054316;28;20033;-46
2022/09/20 01:23:20;;;;;;;2.25;0.93;;;22.90;49.80;;;;;;5003242;28;20503;-46
2022/09/20 01:26:03;;;;;;;0.95;0.75;;;22.90;49.80;;;;;;5048347;28;20051;-46
2022/09/20 01:28:30;;;;;;;1.15;0.80;;;22.90;49.80;;;;;;5049820;28;20051;-49
2022/09/20 01:31:07;;;;;;;1.35;0.77;;;22.90;49.80;;;;;;5038678;28;20069;-45
2022/09/20 01:33:48;;;;;;;2.03;1.13;;;22.90;49.80;;;;;;5046861;28;20032;-53
2022/09/20 01:36:27;;;;;;;1.10;0.80;;;22.90;49.80;;;;;;5047515;28;20033;-45
2022/09/20 01:39:02;;;;;;;1.73;0.88;;;22.90;49.80;;;;;;5047644;28;20029;-45
2022/09/20 01:41:37;;;;;;;0.90;0.75;;;22.90;49.80;;;;;;5051628;28;20136;-45
2022/09/20 01:44:14;;;;;;;1.25;0.80;;;22.80;49.70;;;;;;5051848;28;20063;-45
2022/09/20 01:46:41;;;;;;;1.20;0.70;;;22.90;49.80;;;;;;5044549;28;20032;-45
2022/09/20 01:49:16;;;;;;;0.90;0.80;;;22.90;49.80;;;;;;5058384;28;20543;-45
2022/09/20 01:52:40;;;;;;;1.08;0.85;;;22.90;49.80;;;;;;5070425;28;20043;-45
2022/09/20 01:55:20;;;;;;;1.10;0.80;;;22.90;49.80;;;;;;5000011;28;20054;-45
2022/09/20 01:58:00;;;;;;;2.08;0.75;;;22.90;49.80;;;;;;5070118;28;20024;-46
2022/09/20 02:00:33;;;;;;;1.75;1.00;;;22.90;49.80;;;;;;5070914;28;20021;-45
2022/09/20 02:02:59;;;;;;;1.67;0.80;;;22.90;49.80;;;;;;5069520;28;20124;-45
2022/09/20 02:05:43;;;;;;;1.42;1.00;;;22.90;49.80;;;;;;5051983;28;20108;-46
2022/09/20 02:08:23;;;;;;;1.80;0.98;;;22.90;49.80;;;;;;5051547;28;20030;-45
2022/09/20 02:10:49;;;;;;;0.80;0.60;;;22.80;49.80;;;;;;5055640;28;20398;-45
2022/09/20 02:13:20;;;;;;;1.40;0.75;;;22.90;49.80;;;;;;5070787;28;20070;-45
2022/09/20 02:16:03;;;;;;;2.00;0.90;;;22.90;49.80;;;;;;5069127;28;20025;-46
2022/09/20 02:18:50;;;;;;;1.40;0.70;;;22.90;49.80;;;;;;5057663;28;20352;-45
2022/09/20 02:21:33;;;;;;;2.58;0.73;;;22.90;49.80;;;;;;5053285;28;20033;-45
2022/09/20 02:24:19;;;;;;;2.13;0.98;;;22.90;49.80;;;;;;5073086;28;20067;-46
2022/09/20 02:27:09;;;;;;;1.85;0.90;;;22.80;49.70;;;;;;5054032;28;20040;-45
2022/09/20 02:29:56;;;;;;;1.63;0.70;;;22.90;49.80;;;;;;5054505;28;20040;-53
2022/09/20 02:33:04;;;;;;;1.35;0.70;;;22.90;49.80;;;;;;5061076;28;20104;-45
2022/09/20 02:35:48;;;;;;;2.28;0.80;;;22.80;49.70;;;;;;5074559;28;20431;-45
2022/09/20 02:38:36;;;;;;;1.25;0.65;;;22.80;49.70;;;;;;5063991;28;20025;-45
2022/09/20 02:41:07;;;;;;;0.95;0.70;;;22.80;49.80;;;;;;5074121;28;20381;-45
2022/09/20 02:43:52;;;;;;;0.93;0.70;;;22.90;49.80;;;;;;5074319;28;20383;-54
2022/09/20 02:46:36;;;;;;;1.60;0.90;;;22.80;49.70;;;;;;5071685;28;20032;-45
2022/09/20 02:49:13;;;;;;;1.70;0.90;;;22.80;49.70;;;;;;5054694;28;20474;-45
2022/09/20 02:51:55;;;;;;;2.30;0.95;;;22.90;49.80;;;;;;5058269;28;20048;-49
2022/09/20 02:55:03;;;;;;;1.23;0.80;;;22.80;49.70;;;;;;5061038;28;20067;-47
2022/09/20 02:57:49;;;;;;;2.83;1.20;;;22.80;49.70;;;;;;5068616;28;20028;-46
2022/09/20 03:00:29;;;;;;;1.52;0.75;;;22.80;49.70;;;;;;5072203;28;20035;-50
2022/09/20 03:03:22;;;;;;;1.52;0.90;;;22.80;49.70;;;;;;5070904;28;20035;-50
2022/09/20 03:06:10;;;;;;;1.77;0.80;;;22.80;49.70;;;;;;5070036;28;20025;-46
2022/09/20 03:08:42;;;;;;;1.40;0.70;;;22.80;49.60;;;;;;5073326;28;20034;-55
2022/09/20 03:11:45;;;;;;;0.90;0.70;;;22.80;49.60;;;;;;5051285;28;20041;-48
2022/09/20 03:14:21;;;;;;;1.90;1.00;;;22.80;49.60;;;;;;5053068;28;20056;-45
2022/09/20 03:17:06;;;;;;;1.67;0.80;;;22.80;49.70;;;;;;5035555;28;20034;-45
2022/09/20 03:19:56;;;;;;;1.10;0.65;;;22.80;49.70;;;;;;5034711;28;20029;-47
2022/09/20 03:22:40;;;;;;;1.00;0.70;;;22.80;49.60;;;;;;5035489;28;20429;-44
2022/09/20 03:25:30;;;;;;;1.40;1.02;;;22.80;49.60;;;;;;5034047;28;20079;-45
2022/09/20 03:28:13;;;;;;;2.40;0.82;;;22.80;49.60;;;;;;5034143;28;20117;-46
2022/09/20 03:30:58;;;;;;;1.52;0.60;;;22.80;49.60;;;;;;5042675;28;20017;-46
2022/09/20 03:33:45;;;;;;;1.40;0.70;;;22.80;49.60;;;;;;5033335;28;20037;-45
2022/09/20 03:36:24;;;;;;;1.40;0.68;;;22.80;49.60;;;;;;5034090;28;20040;-45
2022/09/20 03:39:17;;;;;;;1.30;0.70;;;22.80;49.60;;;;;;5032733;28;20509;-45
2022/09/20 03:42:12;;;;;;;1.58;0.60;;;22.80;49.60;;;;;;5033756;28;20021;-44
2022/09/20 03:44:53;;;;;;;1.05;0.65;;;22.80;49.60;;;;;;5032515;28;20052;-54
2022/09/20 03:47:42;;;;;;;1.80;0.98;;;22.80;49.60;;;;;;5052929;28;20025;-46
2022/09/20 03:50:13;;;;;;;2.97;0.80;;;22.80;49.60;;;;;;5051011;28;20389;-44
2022/09/20 03:52:42;;;;;;;;;;;22.80;49.60;;;;;;5053228;28;20402;-54
2022/09/20 03:55:12;;;;;;;0.93;0.70;;;22.80;49.60;;;;;;5037120;28;20003;-45
2022/09/20 03:57:44;;;;;;;2.67;1.05;;;22.80;49.60;;;;;;5052530;28;20103;-56
2022/09/20 04:00:37;;;;;;;1.10;0.60;;;22.80;49.50;;;;;;5035700;28;20032;-45
2022/09/20 04:03:29;;;;;;;0.85;0.60;;;22.80;49.50;;;;;;5036443;28;20033;-45
2022/09/20 04:06:32;;;;;;;2.70;0.77;;;22.80;49.60;;;;;;5013985;28;20048;-45
2022/09/20 04:09:06;;;;;;;1.13;0.73;;;22.80;49.60;;;;;;5048657;28;20044;-50
2022/09/20 04:11:58;;;;;;;2.50;0.77;;;22.80;49.60;;;;;;5033536;28;20055;-45
2022/09/20 04:14:26;;;;;;;;;;;22.80;49.60;;;;;;5027157;28;20104;-45
2022/09/20 04:17:04;;;;;;;2.92;1.08;;;22.80;49.60;;;;;;5032394;28;19913;-47
2022/09/20 04:19:43;;;;;;;1.23;0.70;;;22.80;50.20;;;;;;5034403;28;20038;-45
2022/09/20 04:22:09;;;;;;;3.45;1.20;;;22.80;49.50;;;;;;5032754;28;20025;-45
2022/09/20 04:24:51;;;;;;;1.60;0.70;;;22.80;49.50;;;;;;5052149;28;20047;-45
2022/09/20 04:27:44;;;;;;;1.42;0.80;;;22.80;49.50;;;;;;5052322;28;20481;-46
2022/09/20 04:30:09;;;;;;;1.48;0.70;;;22.80;49.60;;;;;;5035538;28;20066;-45
2022/09/20 04:32:55;;;;;;;1.75;0.70;;;22.80;49.60;;;;;;5052541;28;20405;-46
2022/09/20 04:38:45;;;;;;;1.27;0.60;;;22.80;49.60;;;;;;5034604;28;20105;-51
2022/09/20 04:41:29;;;;;;;0.93;0.57;;;22.80;49.60;;;;;;5052229;28;20123;-46
2022/09/20 04:43:57;;;;;;;1.63;0.70;;;22.80;49.60;;;;;;5035826;28;20094;-46
2022/09/20 04:46:50;;;;;;;1.88;0.98;;;22.80;49.60;;;;;;5051392;28;20021;-45
2022/09/20 04:49:39;;;;;;;0.68;0.55;;;22.80;49.60;;;;;;5052040;28;20037;-45
2022/09/20 04:52:13;;;;;;;1.02;0.60;;;22.80;49.60;;;;;;5042728;28;20041;-46
2022/09/20 04:54:51;;;;;;;0.80;0.60;;;22.80;49.60;;;;;;5041094;28;20047;-53
2022/09/20 04:57:44;;;;;;;1.67;0.75;;;22.80;49.60;;;;;;5050376;28;20033;-45
2022/09/20 05:00:17;;;;;;;1.45;0.80;;;22.80;49.60;;;;;;5051740;28;20067;-46
2022/09/20 05:03:21;;;;;;;1.25;0.70;;;22.80;49.60;;;;;;5050671;28;20425;-57
2022/09/20 05:06:29;;;;;;;1.20;0.80;;;22.80;49.80;;;;;;5049237;28;20128;-50
2022/09/20 05:09:01;;;;;;;2.08;0.70;;;22.80;49.90;;;;;;5039647;28;20075;-48
2022/09/20 05:11:41;;;;;;;;;;;22.90;50.10;;;;;;5022876;28;20115;-48
2022/09/20 05:14:55;;;;;;;3.58;0.77;;;22.90;50.30;;;;;;5031905;28;19909;-49
2022/09/20 05:17:37;;;;;;;1.65;0.70;;;22.90;50.40;;;;;;4996350;28;20170;-50
2022/09/20 05:20:05;;;;;;;0.93;0.63;;;22.90;50.60;;;;;;5047345;28;20110;-50
2022/09/20 05:22:59;;;;;;;1.67;0.55;;;22.90;50.50;;;;;;5051429;28;20025;-49
2022/09/20 05:25:43;;;;;;;2.63;0.75;;;22.90;50.50;;;;;;5046810;28;20032;-48
2022/09/20 05:28:18;;;;;;;1.65;0.73;;;22.80;50.50;;;;;;5029728;28;20064;-53
2022/09/20 05:30:45;;;;;;;2.00;0.80;;;22.90;50.60;;;;;;5028209;28;20112;-53
2022/09/20 05:33:36;;;;;;;2.78;0.85;;;22.90;50.70;;;;;;5024869;28;20037;-46
2022/09/20 05:36:23;;;;;;;3.13;0.70;;;22.80;50.60;;;;;;5031038;28;20112;-46
2022/09/20 05:38:58;;;;;;;1.98;0.82;;;22.90;50.70;;;;;;5031272;28;20047;-46
2022/09/20 05:41:39;;;;;;;2.28;0.98;;;22.80;50.60;;;;;;5031657;28;20455;-47
2022/09/20 05:44:14;;;;;;;4.13;1.08;;;22.90;50.80;;;;;;5031062;28;20041;-46
2022/09/20 05:46:48;;;;;;;8.18;1.08;;;22.90;51.00;;;;;;5031726;28;20053;-47
2022/09/20 05:49:37;;;;;;;6.32;1.08;;;22.90;51.00;;;;;;5030994;28;20032;-46
2022/09/20 05:52:25;;;;;;;2.00;0.60;;;22.90;51.00;;;;;;5030189;28;20463;-46
2022/09/20 05:55:27;;;;;;;5.57;1.20;;;23.00;51.00;;;;;;5031488;28;20113;-47
2022/09/20 05:58:20;;;;;;;4.63;0.70;;;22.90;51.00;;;;;;5034960;28;20110;-47
2022/09/20 06:01:08;;;;;;;3.45;0.95;;;22.90;51.00;;;;;;5034952;28;20059;-49
2022/09/20 06:03:44;;;;;;;4.32;1.15;;;22.90;51.00;;;;;;5035637;28;20040;-48
2022/09/20 06:06:25;;;;;;;3.45;0.77;;;22.90;51.00;;;;;;5032699;28;20026;-45
2022/09/20 06:09:06;;;;;;;4.82;0.85;;;22.90;51.10;;;;;;5033729;28;20025;-46
2022/09/20 06:12:10;;;;;;;2.22;0.98;;;22.80;51.10;;;;;;5049403;28;20049;-46
2022/09/20 06:14:58;;;;;;;5.40;0.95;;;22.90;51.20;;;;;;4954982;29;20175;-48
2022/09/20 06:17:44;;;;;;;1.45;0.70;;;22.80;51.10;;;;;;4955495;29;20118;-45
2022/09/20 06:20:18;;;;;;;2.97;0.68;;;22.80;51.10;;;;;;5029878;28;20033;-48
2022/09/20 06:22:48;;;;;;;3.85;0.77;;;22.80;51.10;;;;;;5052243;28;20037;-55
2022/09/20 06:25:43;;;;;;;1.67;0.82;;;22.80;51.10;;;;;;5035865;28;20045;-45
2022/09/20 06:28:19;;;;;;;2.20;0.80;;;22.80;51.10;;;;;;5034977;28;20022;-46
2022/09/20 06:30:53;;;;;;;2.85;0.90;;;22.80;51.00;;;;;;5034828;28;20034;-56
2022/09/20 06:33:29;;;;;;;1.58;0.60;;;22.80;51.20;;;;;;5034206;28;20040;-46
2022/09/20 06:42:11;;;;;;;2.33;0.75;;;22.90;51.80;;;;;;5054169;28;20083;-48
2022/09/20 06:44:40;;;;;;;2.05;1.35;;;22.80;51.80;;;;;;5053644;28;20029;-47
2022/09/20 06:47:14;;;;;;;3.67;0.98;;;22.90;51.90;;;;;;5053878;28;20198;-47
2022/09/20 06:49:41;;;;;;;2.15;0.80;;;22.80;51.80;;;;;;5054375;28;20018;-46
2022/09/20 06:52:14;;;;;;;2.67;0.90;;;22.90;51.90;;;;;;5054897;28;20050;-47
2022/09/20 06:54:42;;;;;;;3.38;0.90;;;22.90;51.90;;;;;;5055742;28;20111;-45
2022/09/20 06:57:11;;;;;;;2.55;0.80;;;22.90;51.90;;;;;;5053599;28;20032;-45
2022/09/20 06:59:37;;;;;;;5.13;1.23;;;22.90;52.60;;;;;;5053977;28;20450;-46
2022/09/20 07:02:02;;;;;;;2.55;0.90;;;22.90;52.20;;;;;;5049583;28;20033;-45
2022/09/20 07:04:28;;;;;;;2.25;1.00;;;22.90;52.20;;;;;;5040015;28;20025;-46
2022/09/20 07:07:01;;;;;;;4.05;1.67;;;22.90;52.30;;;;;;5053039;28;20075;-47
2022/09/20 07:09:27;;;;;;;4.03;0.93;;;22.90;52.40;;;;;;5054135;28;20029;-46
2022/09/20 07:11:54;;;;;;;4.50;1.00;;;22.90;52.40;;;;;;5052804;28;20049;-46
2022/09/20 07:14:19;;;;;;;2.40;1.30;;;22.90;52.40;;;;;;5054059;28;20063;-46
2022/09/20 07:16:45;;;;;;;6.07;1.23;;;22.90;52.50;;;;;;5053819;28;20064;-55
2022/09/20 07:19:10;;;;;;;3.45;1.05;;;22.90;52.40;;;;;;5048239;28;20029;-46
2022/09/20 07:21:36;;;;;;;2.00;0.70;;;22.90;52.60;;;;;;5054089;28;20067;-47
2022/09/20 07:24:01;;;;;;;2.78;1.17;;;22.90;52.60;;;;;;5054562;28;20025;-47
2022/09/20 07:26:29;;;;;;;4.05;1.00;;;22.90;52.60;;;;;;5064924;28;20462;-48
2022/09/20 07:28:56;;;;;;;4.10;1.33;;;22.90;52.70;;;;;;5053164;28;20036;-47
2022/09/20 07:31:23;;;;;;;3.80;0.93;;;22.90;52.70;;;;;;5053174;28;20462;-48
2022/09/20 07:33:49;;;;;;;1.92;1.20;;;22.90;52.70;;;;;;5053459;28;20074;-56
2022/09/20 07:36:15;;;;;;;1.58;0.65;;;22.90;52.70;;;;;;5051742;28;20033;-50
2022/09/20 07:38:42;;;;;;;3.08;0.90;;;22.80;52.60;;;;;;5053783;28;20416;-46
2022/09/20 07:41:08;;;;;;;4.35;0.90;;;22.90;52.60;;;;;;5053075;28;20112;-48
2022/09/20 07:43:34;;;;;;;2.72;0.80;;;22.90;52.70;;;;;;5053523;28;20078;-50
2022/09/20 07:46:00;;;;;;;3.50;1.02;;;22.90;52.60;;;;;;5052583;28;20437;-48
2022/09/20 07:48:29;;;;;;;3.33;0.98;;;22.80;52.50;;;;;;5053303;28;20100;-48
2022/09/20 07:51:02;;;;;;;2.03;0.80;;;22.80;52.50;;;;;;5052996;28;20378;-50
2022/09/20 07:53:28;;;;;;;5.53;1.00;;;22.90;52.50;;;;;;5050842;28;20033;-48
2022/09/20 07:55:57;;;;;;;5.35;1.85;;;22.80;52.50;;;;;;5051586;28;20028;-46
2022/09/20 07:58:23;;;;;;;3.05;1.67;;;22.80;52.30;;;;;;5052386;28;20052;-46
2022/09/20 08:00:57;;;;;;;3.10;1.08;;;22.90;52.50;;;;;;5052483;28;20029;-54
2022/09/20 08:03:23;;;;;;;3.67;0.90;;;22.90;52.40;;;;;;5052416;28;20398;-48
2022/09/20 08:05:49;;;;;;;4.72;0.90;;;22.80;52.40;;;;;;5052761;28;20390;-54
2022/09/20 08:08:18;;;;;;;2.15;0.65;;;22.80;52.30;;;;;;5052881;28;20029;-50
2022/09/20 08:10:44;;;;;;;3.58;0.70;;;22.90;52.30;;;;;;5050359;28;20056;-49
2022/09/20 08:13:12;;;;;;;5.20;0.82;;;22.80;52.30;;;;;;5052050;28;20386;-46
2022/09/20 08:15:38;;;;;;;4.15;1.52;;;22.80;52.20;;;;;;5054315;28;20086;-50
2022/09/20 08:18:03;;;;;;;2.13;0.98;;;22.80;52.20;;;;;;5053618;28;20024;-46
2022/09/20 08:20:29;;;;;;;2.42;0.90;;;22.90;52.20;;;;;;5064057;28;20040;-47
2022/09/20 08:22:57;;;;;;;2.78;1.17;;;22.90;52.20;;;;;;5051731;28;20415;-54
2022/09/20 08:25:23;;;;;;;1.45;0.73;;;22.80;52.10;;;;;;5052713;28;20453;-46
2022/09/20 08:27:53;;;;;;;1.60;0.80;;;22.80;52.10;;;;;;5042031;28;20033;-57
2022/09/20 08:30:18;;;;;;;2.85;0.85;;;22.90;52.00;;;;;;5036717;28;20068;-47
2022/09/20 08:32:44;;;;;;;3.05;0.70;;;22.90;52.00;;;;;;5052642;28;20533;-47
2022/09/20 08:35:10;;;;;;;2.25;0.90;;;22.80;51.80;;;;;;5051753;28;20035;-46
2022/09/20 08:37:36;;;;;;;2.25;1.35;;;22.90;51.90;;;;;;5052283;28;20025;-46
2022/09/20 08:40:02;;;;;;;3.25;0.75;;;22.80;51.90;;;;;;5051422;28;20082;-47
2022/09/20 08:42:35;;;;;;;2.95;1.27;;;22.90;51.90;;;;;;5052533;28;20374;-46
2022/09/20 08:45:05;;;;;;;1.63;0.50;;;22.80;51.80;;;;;;5049426;28;20036;-50
2022/09/20 08:47:34;;;;;;;3.05;1.10;;;22.90;51.80;;;;;;5052374;28;20017;-46
2022/09/20 08:50:04;;;;;;;2.95;0.90;;;22.80;51.80;;;;;;5050937;28;20395;-46
2022/09/20 08:52:36;;;;;;;1.85;0.73;;;22.90;51.80;;;;;;5052691;28;20017;-50
2022/09/20 08:55:12;;;;;;;2.08;0.88;;;22.90;51.80;;;;;;5050434;28;20028;-49
2022/09/20 08:57:37;;;;;;;4.90;0.80;;;22.80;51.60;;;;;;5051672;28;20028;-46
2022/09/20 09:00:05;;;;;;;2.95;1.00;;;22.90;51.70;;;;;;5050714;28;20454;-47
2022/09/20 09:02:33;;;;;;;1.85;1.20;;;22.90;51.60;;;;;;5050447;28;20021;-46
2022/09/20 09:04:58;;;;;;;6.70;1.45;;;22.90;51.60;;;;;;5050468;28;20098;-48
2022/09/20 09:07:26;;;;;;;2.90;0.80;;;22.90;51.60;;;;;;5048790;28;20017;-48
2022/09/20 09:09:54;;;;;;;2.28;0.77;;;22.80;51.50;;;;;;5050699;28;20036;-55
2022/09/20 09:12:30;;;;;;;2.53;0.88;;;22.90;52.10;;;;;;5052746;28;20374;-48
2022/09/20 09:15:20;;;;;;;3.65;1.00;;;22.80;51.40;;;;;;5061809;28;20075;-46
2022/09/20 09:17:45;;;;;;;2.22;0.80;;;22.90;51.50;;;;;;5049995;28;20021;-50
2022/09/20 09:20:23;;;;;;;2.45;0.90;;;22.90;51.40;;;;;;5050359;28;20021;-48
2022/09/20 09:23:18;;;;;;;1.98;0.95;;;22.90;51.30;;;;;;5051689;28;20025;-56
2022/09/20 09:25:43;;;;;;;2.22;0.82;;;22.90;51.40;;;;;;5051517;28;20028;-49
2022/09/20 09:28:09;;;;;;;3.90;1.00;;;22.90;51.40;;;;;;5050882;28;20163;-47
2022/09/20 09:30:39;;;;;;;2.78;0.88;;;22.90;51.30;;;;;;5051669;28;20029;-46
2022/09/20 09:33:18;;;;;;;1.77;0.93;;;22.80;51.30;;;;;;5050880;28;20108;-45
2022/09/20 09:35:53;;;;;;;2.72;1.35;;;22.90;51.30;;;;;;5041656;28;20037;-47
2022/09/20 09:38:24;;;;;;;1.35;0.60;;;22.80;51.20;;;;;;5036365;28;20151;-47
2022/09/20 09:40:54;;;;;;;3.33;0.93;;;22.80;51.20;;;;;;5051305;28;20013;-53
2022/09/20 09:43:25;;;;;;;1.88;0.80;;;22.80;51.10;;;;;;5051533;28;20033;-48
2022/09/20 09:45:52;;;;;;;2.13;0.93;;;22.90;51.20;;;;;;5051060;28;20021;-54
2022/09/20 09:48:30;;;;;;;3.97;0.60;;;22.90;51.20;;;;;;5051243;28;20040;-51
2022/09/20 09:51:16;;;;;;;2.47;0.63;;;22.90;51.20;;;;;;5050630;28;20025;-47
2022/09/20 09:53:43;;;;;;;1.70;0.60;;;22.80;51.10;;;;;;5048485;28;20444;-49
2022/09/20 09:56:28;;;;;;;3.60;1.40;;;22.80;51.10;;;;;;5050270;28;20051;-46
2022/09/20 09:59:09;;;;;;;2.47;0.60;;;22.90;51.20;;;;;;5050718;28;20033;-50
2022/09/20 10:02:01;;;;;;;3.53;0.80;;;22.80;51.20;;;;;;5050922;28;20041;-48
2022/09/20 10:04:48;;;;;;;2.92;1.05;;;22.90;51.30;;;;;;5036249;28;20459;-53
2022/09/20 10:07:50;;;;;;;6.57;1.50;;;22.80;51.10;;;;;;5042275;28;20043;-48
2022/09/20 10:10:33;;;;;;;3.30;1.23;;;22.90;51.20;;;;;;5034917;28;20124;-47
2022/09/20 10:13:08;;;;;;;2.10;0.85;;;22.90;50.90;;;;;;5050209;28;20029;-49
2022/09/20 10:15:49;;;;;;;5.97;1.55;;;22.90;51.00;;;;;;5051396;28;20029;-50
2022/09/20 10:18:39;;;;;;;4.50;1.20;;;22.90;50.80;;;;;;5039627;28;20474;-49
2022/09/20 10:21:27;;;;;;;13.10;3.00;;;22.90;50.60;;;;;;5041414;28;20034;-47
2022/09/20 10:24:13;;;;;;;7.85;1.88;;;22.90;51.00;;;;;;5046148;28;20029;-55
2022/09/20 10:26:57;;;;;;;14.57;2.72;;;22.90;51.00;;;;;;5047948;28;20561;-46
2022/09/20 10:29:30;;;;;;;10.88;2.47;;;23.00;51.10;;;;;;5047798;28;20100;-51
2022/09/20 10:32:17;;;;;;;9.65;2.40;;;22.90;51.20;;;;;;5042915;28;20025;-46
2022/09/20 10:35:18;;;;;;;5.32;1.90;;;23.00;51.20;;;;;;5045086;28;20040;-45
2022/09/20 10:37:53;;;;;;;9.05;2.00;;;23.00;51.10;;;;;;5047469;28;20537;-45
2022/09/20 10:40:18;;;;;;;5.47;2.40;;;23.00;51.00;;;;;;5046521;28;20351;-49
2022/09/20 10:46:02;;;;;;;5.50;1.77;;;23.10;51.00;;;;;;5052643;28;20128;-45
2022/09/20 10:48:47;;;;;;;7.85;1.65;;;23.10;51.00;;;;;;5040296;28;20028;-46
2022/09/20 10:51:40;;;;;;;8.57;1.80;;;23.10;51.10;;;;;;5055724;28;20021;-46
2022/09/20 10:54:14;;;;;;;4.88;1.98;;;23.10;51.00;;;;;;5053545;28;20036;-46
2022/09/20 10:56:46;;;;;;;4.47;1.38;;;23.00;47.10;;;;;;5054391;28;20040;-45
2022/09/20 10:59:32;;;;;;;;;;;23.00;48.80;;;;;;5054150;28;20049;-45
2022/09/20 11:02:16;;;;;;;3.65;1.10;;;23.10;49.10;;;;;;5053291;28;19937;-46
2022/09/20 11:05:27;;;;;;;5.43;1.30;;;23.10;49.80;;;;;;5054066;28;20040;-47
2022/09/20 11:07:58;;;;;;;6.13;2.08;;;23.10;50.10;;;;;;5053638;28;20029;-56
2022/09/20 11:10:56;;;;;;;6.68;1.60;;;23.10;50.20;;;;;;5048423;28;20490;-52
2022/09/20 11:13:21;;;;;;;5.35;1.20;;;23.10;50.20;;;;;;5020073;28;20501;-47
2022/09/20 11:16:01;;;;;;;4.97;1.52;;;23.10;50.20;;;;;;5034255;28;20030;-52
2022/09/20 11:19:00;;;;;;;5.05;1.30;;;23.10;50.20;;;;;;5027958;28;20032;-47
2022/09/20 11:21:38;;;;;;;5.13;1.38;;;23.10;50.30;;;;;;5043073;28;20040;-45
2022/09/20 11:24:12;;;;;;;4.45;1.42;;;23.10;50.50;;;;;;5036390;28;20471;-48
2022/09/20 11:26:43;;;;;;;3.15;1.10;;;23.10;50.50;;;;;;5046920;28;20021;-49
2022/09/20 11:29:32;;;;;;;5.18;1.58;;;23.10;50.60;;;;;;5044387;28;20029;-47
2022/09/20 11:32:20;;;;;;;3.58;1.17;;;23.10;50.70;;;;;;5036540;28;20029;-46
2022/09/20 11:34:54;;;;;;;3.45;1.35;;;23.10;50.70;;;;;;5041503;28;20022;-46
2022/09/20 11:37:28;;;;;;;3.95;1.20;;;23.10;50.70;;;;;;5046068;28;20108;-48
2022/09/20 11:39:55;;;;;;;2.25;0.95;;;23.10;50.80;;;;;;5035917;28;20021;-49
2022/09/20 11:42:29;;;;;;;6.43;1.60;;;23.10;50.80;;;;;;5048620;28;20098;-47
2022/09/20 11:44:54;;;;;;;2.97;1.00;;;23.10;50.70;;;;;;5042264;28;20029;-49
2022/09/20 11:47:23;;;;;;;4.07;1.05;;;23.10;50.70;;;;;;5040634;28;20080;-46
2022/09/20 11:50:13;;;;;;;3.55;1.33;;;23.10;50.80;;;;;;5049698;28;20029;-48
2022/09/20 11:52:51;;;;;;;2.38;0.93;;;23.10;50.70;;;;;;5022023;28;20410;-51
2022/09/20 11:55:26;;;;;;;2.88;1.20;;;23.10;50.70;;;;;;5045323;28;20087;-47
2022/09/20 11:58:21;;;;;;;4.22;1.30;;;23.10;50.80;;;;;;5036044;28;20550;-55
2022/09/20 12:00:50;;;;;;;4.55;1.15;;;23.10;50.80;;;;;;5045107;28;20029;-47
2022/09/20 12:03:44;;;;;;;4.30;1.23;;;23.00;50.70;;;;;;5045522;28;20029;-46
2022/09/20 12:06:40;;;;;;;3.75;1.20;;;23.10;50.80;;;;;;5042752;28;20021;-47
2022/09/20 12:09:27;;;;;;;3.08;1.02;;;23.00;50.60;;;;;;5017981;28;20125;-46
2022/09/20 12:11:55;;;;;;;4.25;1.73;;;23.10;50.70;;;;;;5048743;28;20497;-55
2022/09/20 12:14:27;;;;;;;4.93;1.33;;;23.00;50.60;;;;;;5037467;28;20024;-45
2022/09/20 12:16:53;;;;;;;;;;;23.00;50.60;;;;;;5052519;28;20028;-55
2022/09/20 12:19:20;;;;;;;3.45;1.05;;;23.10;50.60;;;;;;5052955;28;19927;-45
2022/09/20 12:21:57;;;;;;;4.22;1.33;;;23.00;50.50;;;;;;5052581;28;20433;-46
2022/09/20 12:24:38;;;;;;;2.65;0.90;;;23.00;50.50;;;;;;5038023;28;20048;-46
2022/09/20 12:27:42;;;;;;;3.70;1.02;;;23.10;50.50;;;;;;5042541;28;20033;-47
2022/09/20 12:30:34;;;;;;;2.60;1.02;;;23.10;50.40;;;;;;5051707;28;20037;-45
2022/09/20 12:33:01;;;;;;;1.67;0.70;;;23.10;50.40;;;;;;5049514;28;20439;-46
2022/09/20 12:35:38;;;;;;;2.75;0.90;;;23.10;50.40;;;;;;5052757;28;20052;-48
2022/09/20 12:38:26;;;;;;;2.08;1.00;;;23.10;50.30;;;;;;5058330;28;20020;-45
2022/09/20 12:41:14;;;;;;;2.22;1.10;;;23.10;50.30;;;;;;5052704;28;20074;-55
2022/09/20 12:43:57;;;;;;;4.72;1.00;;;23.10;50.30;;;;;;5065734;28;20090;-45
2022/09/20 12:46:37;;;;;;;1.70;0.93;;;23.10;50.20;;;;;;5067692;28;20024;-48
2022/09/20 12:52:55;;;;;;;1.30;0.73;;;23.10;50.10;;;;;;5055207;28;20082;-48
2022/09/20 12:55:37;;;;;;;3.03;0.90;;;23.10;47.60;;;;;;5052302;28;20033;-46
2022/09/20 12:58:18;;;;;;;1.55;0.88;;;23.00;40.30;;;;;;5051062;28;20044;-50
2022/09/20 13:00:50;;;;;;;3.00;1.42;;;22.70;39.30;;;;;;5041687;28;20039;-47
2022/09/20 13:03:30;;;;;;;;;;;22.70;38.20;;;;;;5051821;28;20036;-49
2022/09/20 13:06:11;;;;;;;8.82;1.10;;;22.70;40.00;;;;;;5048803;28;19908;-46
2022/09/20 13:08:42;;;;;;;4.93;1.08;;;22.80;42.50;;;;;;5051882;28;20021;-52
2022/09/20 13:11:27;;;;;;;3.47;1.00;;;22.90;42.80;;;;;;5050926;28;20056;-46
2022/09/20 13:14:08;;;;;;;4.22;1.05;;;22.90;42.80;;;;;;5050880;28;20090;-56
2022/09/20 13:16:49;;;;;;;5.15;0.90;;;22.90;41.90;;;;;;5050205;28;20059;-49
2022/09/20 13:19:19;;;;;;;1.55;0.73;;;22.90;41.90;;;;;;5051535;28;20064;-49
2022/09/20 13:22:02;;;;;;;2.30;1.02;;;23.00;41.60;;;;;;5051805;28;20412;-46
2022/09/20 13:24:37;;;;;;;1.85;1.00;;;23.00;41.60;;;;;;5037233;28;20039;-45
2022/09/20 13:27:17;;;;;;;2.45;0.70;;;23.00;41.60;;;;;;5051532;28;20409;-45
2022/09/20 13:29:44;;;;;;;4.65;1.63;;;23.00;41.50;;;;;;5051562;28;20467;-48
2022/09/20 13:32:23;;;;;;;4.13;0.82;;;23.00;41.90;;;;;;5050672;28;20855;-47
2022/09/20 13:35:13;;;;;;;1.95;0.50;;;23.00;41.60;;;;;;5041742;28;20037;-45
2022/09/20 13:37:51;;;;;;;1.85;0.70;;;23.00;41.30;;;;;;5051517;28;20021;-50
2022/09/20 13:40:24;;;;;;;2.92;1.48;;;23.00;41.20;;;;;;5036322;28;20466;-48
2022/09/20 13:42:51;;;;;;;4.78;1.23;;;23.00;41.10;;;;;;5062763;28;20531;-54
2022/09/20 13:45:20;;;;;;;4.88;1.55;;;23.00;41.40;;;;;;5051670;28;20236;-46
2022/09/20 13:47:51;;;;;;;3.80;1.00;;;23.00;41.40;;;;;;5051359;28;20025;-45
2022/09/20 13:50:34;;;;;;;4.03;0.83;;;23.00;42.30;;;;;;5036485;28;20024;-45
2022/09/20 13:53:02;;;;;;;5.10;1.65;;;23.00;42.70;;;;;;5050699;28;20110;-46
2022/09/20 13:55:33;;;;;;;2.42;0.60;;;23.00;43.80;;;;;;5051069;28;20044;-46